Time;durP1;ratioP1;P1;durP2;ratioP2;P2;SDS_P1;SDS_P2;PMS_P1;PMS_P2;Temp;Humidity;BMP_temperature;BMP_pressure;BME280_temperature;BME280_humidity;BME280_pressure;Samples;Min_cycle;Max_cycle;Signal;HPM_P1;HPM_P2
2021/12/26 00:01:29;;;;;;;6.72;6.13;;;3.60;99.90;;;;;;5012298;28;20668;-76
2021/12/26 00:03:56;;;;;;;6.90;6.30;;;3.60;99.90;;;;;;5007242;28;20244;-75
2021/12/26 00:06:28;;;;;;;7.43;6.75;;;3.60;99.90;;;;;;5003058;28;20396;-76
2021/12/26 00:08:58;;;;;;;7.15;6.55;;;3.60;99.90;;;;;;5011704;28;20237;-77
2021/12/26 00:11:25;;;;;;;6.85;6.20;;;3.60;99.90;;;;;;5012357;28;20220;-76
2021/12/26 00:13:53;;;;;;;7.50;6.80;;;3.60;99.90;;;;;;5006025;28;20204;-76
2021/12/26 00:16:21;;;;;;;6.18;5.68;;;3.50;99.90;;;;;;5008481;28;20523;-76
2021/12/26 00:18:49;;;;;;;5.55;5.13;;;3.50;99.90;;;;;;5007834;28;20201;-76
2021/12/26 00:21:20;;;;;;;5.65;5.25;;;3.40;99.90;;;;;;5007355;28;20274;-76
2021/12/26 00:23:48;;;;;;;6.55;5.95;;;3.40;99.90;;;;;;5007426;28;20205;-76
2021/12/26 00:26:16;;;;;;;6.15;5.55;;;3.40;99.90;;;;;;5008281;28;20478;-77
2021/12/26 00:28:43;;;;;;;6.10;5.60;;;3.40;99.90;;;;;;5007283;28;20632;-76
2021/12/26 00:31:10;;;;;;;6.03;5.53;;;3.40;99.90;;;;;;5005079;28;20227;-77
2021/12/26 00:33:38;;;;;;;6.85;6.35;;;3.30;99.90;;;;;;5010969;28;20211;-76
2021/12/26 00:36:07;;;;;;;6.65;6.05;;;3.40;99.90;;;;;;5013716;28;20224;-77
2021/12/26 00:38:35;;;;;;;5.68;5.28;;;3.30;99.90;;;;;;5003818;28;20230;-76
2021/12/26 00:41:03;;;;;;;6.75;6.15;;;3.30;99.90;;;;;;5008310;28;20258;-76
2021/12/26 00:43:30;;;;;;;7.38;6.78;;;3.30;99.90;;;;;;5008039;28;20219;-77
2021/12/26 00:45:58;;;;;;;8.50;7.80;;;3.30;99.90;;;;;;5022612;28;20216;-76
2021/12/26 00:48:25;;;;;;;8.23;7.43;;;3.20;99.90;;;;;;5007423;28;20680;-76
2021/12/26 00:50:52;;;;;;;8.82;7.97;;;3.10;99.90;;;;;;5007783;28;20220;-76
2021/12/26 00:53:21;;;;;;;7.93;7.22;;;3.10;99.90;;;;;;5006631;28;20193;-76
2021/12/26 00:55:48;;;;;;;8.57;7.78;;;3.10;99.90;;;;;;5009024;28;20745;-76
2021/12/26 00:58:15;;;;;;;7.80;7.10;;;3.10;99.90;;;;;;5005503;28;20258;-76
2021/12/26 01:00:47;;;;;;;8.07;7.38;;;3.10;99.90;;;;;;5001894;28;20602;-77
2021/12/26 01:03:16;;;;;;;7.60;6.93;;;3.00;99.90;;;;;;5009893;28;20287;-76
2021/12/26 01:05:45;;;;;;;7.60;6.90;;;3.10;99.90;;;;;;5010280;28;20231;-76
2021/12/26 01:08:15;;;;;;;6.93;6.43;;;3.00;99.90;;;;;;5007441;28;20242;-77
2021/12/26 01:10:49;;;;;;;7.82;7.03;;;3.00;99.90;;;;;;5005487;28;20344;-77
2021/12/26 01:13:22;;;;;;;6.43;5.93;;;3.10;99.90;;;;;;5007112;28;20196;-76
2021/12/26 01:15:52;;;;;;;6.30;5.75;;;3.10;99.90;;;;;;5008417;28;20262;-76
2021/12/26 01:18:20;;;;;;;6.35;5.75;;;3.10;99.90;;;;;;5014553;28;20580;-76
2021/12/26 01:20:52;;;;;;;6.15;5.65;;;3.10;99.90;;;;;;5005581;28;20267;-76
2021/12/26 01:23:22;;;;;;;5.63;5.13;;;3.10;99.90;;;;;;5011401;28;20196;-76
2021/12/26 01:25:51;;;;;;;5.97;5.47;;;3.10;99.90;;;;;;5003702;28;20223;-76
2021/12/26 01:28:21;;;;;;;5.30;4.90;;;3.10;99.90;;;;;;5010152;28;20235;-76
2021/12/26 01:30:49;;;;;;;5.07;4.72;;;3.20;99.90;;;;;;5001926;28;20232;-76
2021/12/26 01:33:18;;;;;;;5.45;5.05;;;3.20;99.90;;;;;;5013033;28;20212;-76
2021/12/26 01:35:46;;;;;;;5.18;4.78;;;3.20;99.90;;;;;;5005836;28;20223;-77
2021/12/26 01:38:14;;;;;;;5.40;5.00;;;3.20;99.90;;;;;;5016141;28;20188;-78
2021/12/26 01:40:44;;;;;;;5.35;4.95;;;3.20;99.90;;;;;;5008966;28;20223;-76
2021/12/26 01:43:14;;;;;;;5.13;4.72;;;3.20;99.90;;;;;;5005969;28;20193;-76
2021/12/26 01:45:41;;;;;;;5.80;5.40;;;3.20;99.90;;;;;;5004807;28;20219;-76
2021/12/26 01:48:08;;;;;;;5.53;5.10;;;3.10;99.90;;;;;;5004000;28;20575;-76
2021/12/26 01:50:37;;;;;;;5.68;5.28;;;3.10;99.90;;;;;;5004469;28;20232;-77
2021/12/26 01:53:05;;;;;;;4.80;4.40;;;3.10;99.90;;;;;;5009265;28;20663;-76
2021/12/26 01:55:40;;;;;;;5.20;4.90;;;3.10;99.90;;;;;;5115468;23;20499;-76
2021/12/26 01:58:12;;;;;;;4.30;4.00;;;3.10;99.90;;;;;;5025326;28;20191;-80
2021/12/26 02:00:42;;;;;;;5.10;4.70;;;3.10;99.90;;;;;;5024725;28;20219;-78
2021/12/26 02:03:10;;;;;;;5.22;4.88;;;3.10;99.90;;;;;;5030560;28;20657;-81
2021/12/26 02:05:37;;;;;;;5.20;4.80;;;3.00;99.90;;;;;;5022855;28;20223;-78
2021/12/26 02:08:05;;;;;;;5.30;4.95;;;3.00;99.90;;;;;;5025814;28;20846;-78
2021/12/26 02:10:32;;;;;;;5.00;4.70;;;3.00;99.90;;;;;;5032609;28;20721;-78
2021/12/26 02:12:59;;;;;;;5.68;5.28;;;3.00;99.90;;;;;;5029796;28;20204;-78
2021/12/26 02:15:26;;;;;;;5.75;5.35;;;3.00;99.90;;;;;;5028492;28;20227;-78
2021/12/26 02:17:55;;;;;;;6.07;5.57;;;3.00;99.90;;;;;;5032694;28;20706;-81
2021/12/26 02:20:33;;;;;;;6.40;5.80;;;3.00;99.90;;;;;;5024665;28;20224;-81
2021/12/26 02:23:06;;;;;;;5.68;5.28;;;2.90;99.90;;;;;;5029913;28;20658;-77
2021/12/26 02:28:16;;;;;;;6.63;6.03;;;2.90;99.90;;;;;;5026457;28;20195;-79
2021/12/26 02:30:43;;;;;;;6.38;5.88;;;2.90;99.90;;;;;;5024822;28;20741;-78
2021/12/26 02:33:12;;;;;;;6.55;5.95;;;2.90;99.90;;;;;;5035848;28;20200;-76
2021/12/26 02:35:41;;;;;;;6.03;5.63;;;2.80;99.90;;;;;;5029949;28;20243;-75
2021/12/26 02:38:09;;;;;;;6.30;5.80;;;2.80;99.90;;;;;;5031077;28;20295;-80
2021/12/26 02:40:37;;;;;;;6.63;6.03;;;2.80;99.90;;;;;;5030395;28;20235;-76
2021/12/26 02:43:05;;;;;;;6.38;5.78;;;2.80;99.90;;;;;;5032370;28;20621;-78
2021/12/26 02:45:33;;;;;;;6.03;5.53;;;2.80;99.90;;;;;;5027141;28;20223;-80
2021/12/26 02:48:00;;;;;;;5.78;5.25;;;2.80;99.90;;;;;;5032447;28;20199;-80
2021/12/26 02:50:31;;;;;;;6.40;5.90;;;2.80;99.90;;;;;;5030344;28;20222;-80
2021/12/26 02:53:01;;;;;;;5.47;4.97;;;2.80;99.90;;;;;;5029724;28;20195;-80
2021/12/26 02:55:29;;;;;;;5.82;5.43;;;2.80;99.90;;;;;;5026628;28;20260;-78
2021/12/26 02:57:59;;;;;;;5.75;5.35;;;2.80;99.90;;;;;;5030983;28;20203;-79
2021/12/26 03:00:29;;;;;;;5.65;5.20;;;2.80;99.90;;;;;;5028787;28;20230;-77
2021/12/26 03:02:58;;;;;;;5.13;4.72;;;2.80;99.90;;;;;;5024830;28;20571;-79
2021/12/26 03:05:30;;;;;;;4.82;4.43;;;2.90;99.90;;;;;;5026298;28;20227;-79
2021/12/26 03:07:58;;;;;;;4.88;4.53;;;2.80;99.90;;;;;;5031289;28;20203;-77
2021/12/26 03:10:27;;;;;;;4.47;4.18;;;2.90;99.90;;;;;;5027656;28;20228;-78
2021/12/26 03:12:57;;;;;;;5.03;4.65;;;2.90;99.90;;;;;;5031138;28;20200;-77
2021/12/26 03:15:25;;;;;;;5.50;5.10;;;2.90;99.90;;;;;;5027131;28;20302;-81
2021/12/26 03:17:55;;;;;;;4.45;4.15;;;2.80;99.90;;;;;;5028424;28;20640;-79
2021/12/26 03:20:24;;;;;;;5.13;4.80;;;2.80;99.90;;;;;;5028654;28;20231;-79
2021/12/26 03:22:51;;;;;;;5.57;5.18;;;2.80;99.90;;;;;;5028779;28;20208;-78
2021/12/26 03:25:22;;;;;;;5.43;4.93;;;2.80;99.90;;;;;;5027526;28;20584;-79
2021/12/26 03:27:51;;;;;;;5.65;5.20;;;2.80;99.90;;;;;;5028890;28;20689;-76
2021/12/26 03:30:20;;;;;;;5.40;4.90;;;2.80;99.90;;;;;;5028006;28;20215;-78
2021/12/26 03:32:47;;;;;;;5.78;5.28;;;2.80;99.90;;;;;;5029628;28;20200;-80
2021/12/26 03:35:15;;;;;;;4.65;4.35;;;2.80;99.90;;;;;;5028416;28;20238;-78
2021/12/26 03:37:43;;;;;;;5.28;4.88;;;2.80;99.90;;;;;;5030507;28;20208;-77
2021/12/26 03:40:11;;;;;;;4.82;4.43;;;2.80;99.90;;;;;;5029401;28;20253;-78
2021/12/26 03:42:40;;;;;;;5.22;4.82;;;2.70;99.90;;;;;;5028860;28;20254;-77
2021/12/26 03:45:09;;;;;;;5.45;5.05;;;2.70;99.90;;;;;;5023926;28;20234;-78
2021/12/26 03:47:37;;;;;;;5.20;4.90;;;2.70;99.90;;;;;;5023150;28;20724;-81
2021/12/26 03:50:05;;;;;;;4.85;4.55;;;2.70;99.90;;;;;;5031181;28;20215;-75
2021/12/26 03:52:32;;;;;;;5.50;5.10;;;2.70;99.90;;;;;;5027660;28;20204;-78
2021/12/26 03:55:00;;;;;;;5.85;5.35;;;2.70;99.90;;;;;;5032879;28;20222;-78
2021/12/26 03:57:27;;;;;;;5.78;5.35;;;2.70;99.90;;;;;;5028459;28;20204;-76
2021/12/26 03:59:55;;;;;;;6.18;5.68;;;2.60;99.90;;;;;;5026316;28;20207;-77
2021/12/26 04:02:23;;;;;;;6.30;5.80;;;2.60;99.90;;;;;;5024679;28;20223;-78
2021/12/26 04:04:50;;;;;;;6.20;5.70;;;2.60;99.90;;;;;;5027442;28;20449;-76
2021/12/26 04:07:17;;;;;;;6.53;6.03;;;2.60;99.90;;;;;;5031912;28;20546;-75
2021/12/26 04:09:44;;;;;;;6.00;5.40;;;2.60;99.90;;;;;;5030939;28;20196;-75
2021/12/26 04:12:12;;;;;;;6.20;5.70;;;2.60;99.90;;;;;;5029142;28;20235;-77
2021/12/26 04:14:39;;;;;;;6.38;5.88;;;2.60;99.90;;;;;;5029569;28;20271;-79
2021/12/26 04:17:07;;;;;;;5.60;5.20;;;2.60;99.90;;;;;;5029460;28;20250;-78
2021/12/26 04:19:34;;;;;;;6.03;5.53;;;2.60;99.90;;;;;;5032501;28;20722;-78
2021/12/26 04:22:02;;;;;;;5.82;5.38;;;2.60;99.90;;;;;;5027790;28;20282;-78
2021/12/26 04:24:30;;;;;;;5.40;5.00;;;2.60;99.90;;;;;;5029743;28;20245;-78
2021/12/26 04:26:57;;;;;;;5.60;5.20;;;2.60;99.90;;;;;;5029347;28;20306;-76
2021/12/26 04:29:24;;;;;;;5.85;5.35;;;2.50;99.90;;;;;;5032702;28;20202;-78
2021/12/26 04:31:52;;;;;;;5.38;4.97;;;2.60;99.90;;;;;;5028247;28;20703;-77
2021/12/26 04:34:20;;;;;;;5.50;5.10;;;2.60;99.90;;;;;;5029124;28;20918;-78
2021/12/26 04:36:47;;;;;;;5.38;4.97;;;2.60;99.90;;;;;;5028112;28;20266;-77
2021/12/26 04:39:14;;;;;;;5.70;5.30;;;2.60;99.90;;;;;;5030640;28;20203;-76
2021/12/26 04:41:45;;;;;;;5.72;5.22;;;2.50;99.90;;;;;;5025330;28;20215;-77
2021/12/26 04:44:12;;;;;;;5.97;5.47;;;2.50;99.90;;;;;;5033706;28;20195;-78
2021/12/26 04:46:39;;;;;;;6.05;5.57;;;2.50;99.90;;;;;;5028810;28;20590;-77
2021/12/26 04:49:06;;;;;;;6.00;5.50;;;2.50;99.90;;;;;;5028298;28;20200;-78
2021/12/26 04:51:35;;;;;;;5.25;4.85;;;2.50;99.90;;;;;;5030102;28;20277;-76
2021/12/26 04:54:02;;;;;;;4.60;4.22;;;2.50;99.90;;;;;;5032240;28;20238;-78
2021/12/26 04:56:29;;;;;;;4.95;4.55;;;2.50;99.90;;;;;;5026885;28;20212;-80
2021/12/26 04:58:56;;;;;;;4.47;4.18;;;2.50;99.90;;;;;;5025336;28;20192;-76
2021/12/26 05:01:23;;;;;;;5.00;4.70;;;2.50;99.90;;;;;;5025837;28;20227;-82
2021/12/26 05:03:50;;;;;;;5.20;4.80;;;2.50;99.90;;;;;;5025509;28;20647;-78
2021/12/26 05:06:17;;;;;;;5.15;4.85;;;2.50;99.90;;;;;;5028660;28;20269;-79
2021/12/26 05:08:46;;;;;;;4.95;4.55;;;2.50;99.90;;;;;;5025756;28;20195;-76
2021/12/26 05:11:13;;;;;;;5.15;4.75;;;2.50;99.90;;;;;;5028431;28;20706;-77
2021/12/26 05:13:40;;;;;;;4.97;4.65;;;2.50;99.90;;;;;;5029447;28;20196;-79
2021/12/26 05:16:07;;;;;;;4.80;4.40;;;2.50;99.90;;;;;;5029624;28;20220;-76
2021/12/26 05:18:34;;;;;;;4.80;4.40;;;2.50;99.90;;;;;;5026667;28;20203;-75
2021/12/26 05:21:01;;;;;;;5.60;5.20;;;2.50;99.90;;;;;;5029948;28;20249;-76
2021/12/26 05:23:28;;;;;;;5.57;5.07;;;2.40;99.90;;;;;;5019088;28;20200;-76
2021/12/26 05:25:56;;;;;;;5.18;4.78;;;2.40;99.90;;;;;;5028781;28;20219;-75
2021/12/26 05:28:23;;;;;;;4.88;4.50;;;2.40;99.90;;;;;;5028311;28;20203;-79
2021/12/26 05:30:51;;;;;;;5.63;5.13;;;2.40;99.90;;;;;;5026541;28;20223;-76
2021/12/26 05:33:18;;;;;;;5.70;5.30;;;2.40;99.90;;;;;;5028720;28;20200;-76
2021/12/26 05:35:45;;;;;;;5.07;4.78;;;2.40;99.90;;;;;;5023355;28;20885;-76
2021/12/26 05:38:12;;;;;;;4.90;4.60;;;2.40;99.90;;;;;;5024582;28;20275;-78
2021/12/26 05:40:39;;;;;;;4.97;4.68;;;2.50;99.90;;;;;;5029174;28;20620;-77
2021/12/26 05:43:07;;;;;;;4.80;4.50;;;2.50;99.90;;;;;;5023222;28;20899;-79
2021/12/26 05:45:34;;;;;;;4.57;4.28;;;2.50;99.90;;;;;;5027296;28;20223;-77
2021/12/26 05:48:01;;;;;;;4.57;4.28;;;2.50;99.90;;;;;;5027830;28;20208;-80
2021/12/26 05:50:28;;;;;;;4.97;4.68;;;2.50;99.90;;;;;;5028745;28;20234;-80
2021/12/26 05:52:55;;;;;;;4.57;4.28;;;2.50;99.90;;;;;;5031703;28;20199;-78
2021/12/26 05:55:23;;;;;;;4.53;4.22;;;2.50;99.90;;;;;;5028894;28;20305;-78
2021/12/26 05:57:50;;;;;;;4.63;4.32;;;2.40;99.90;;;;;;5026544;28;20277;-77
2021/12/26 06:00:20;;;;;;;4.32;4.03;;;2.50;99.90;;;;;;5024580;28;20208;-80
2021/12/26 06:02:50;;;;;;;4.97;4.68;;;2.40;99.90;;;;;;5028225;28;20230;-77
2021/12/26 06:05:17;;;;;;;5.22;4.82;;;2.40;99.90;;;;;;5031975;28;20219;-79
2021/12/26 06:07:44;;;;;;;4.60;4.30;;;2.40;99.90;;;;;;5033536;28;20218;-76
2021/12/26 06:10:11;;;;;;;5.32;5.00;;;2.40;99.90;;;;;;5032801;28;20207;-77
2021/12/26 06:12:38;;;;;;;4.95;4.65;;;2.40;99.90;;;;;;5033698;28;20297;-77
2021/12/26 06:15:06;;;;;;;4.80;4.50;;;2.40;99.90;;;;;;5034106;28;20285;-76
2021/12/26 06:17:35;;;;;;;4.93;4.53;;;2.40;99.90;;;;;;5032031;28;20623;-75
2021/12/26 06:20:02;;;;;;;4.82;4.53;;;2.40;99.90;;;;;;5029954;28;20798;-79
2021/12/26 06:22:29;;;;;;;5.32;4.93;;;2.40;99.90;;;;;;5031425;28;20628;-77
2021/12/26 06:24:56;;;;;;;5.25;4.88;;;2.40;99.90;;;;;;5029143;28;20231;-77
2021/12/26 06:27:23;;;;;;;5.05;4.65;;;2.40;99.90;;;;;;5033304;28;20673;-81
2021/12/26 06:29:50;;;;;;;5.30;4.90;;;2.40;99.90;;;;;;5030936;28;20648;-79
2021/12/26 06:32:17;;;;;;;5.28;4.95;;;2.30;99.90;;;;;;5024621;28;20196;-79
2021/12/26 06:34:45;;;;;;;6.95;6.45;;;2.30;99.90;;;;;;5029296;28;20300;-75
2021/12/26 06:37:13;;;;;;;6.20;5.70;;;2.20;99.90;;;;;;5029597;28;20285;-76
2021/12/26 06:39:40;;;;;;;6.68;6.20;;;2.20;99.90;;;;;;5035308;28;20223;-78
2021/12/26 06:42:07;;;;;;;6.43;6.03;;;2.20;99.90;;;;;;5033265;28;20554;-78
2021/12/26 06:44:34;;;;;;;6.25;5.75;;;2.30;99.90;;;;;;5034365;28;20278;-76
2021/12/26 06:47:01;;;;;;;6.53;6.03;;;2.30;99.90;;;;;;5029014;28;20211;-76
2021/12/26 06:49:28;;;;;;;6.75;6.25;;;2.30;99.90;;;;;;5035437;28;20210;-76
2021/12/26 06:51:57;;;;;;;6.22;5.82;;;2.30;99.90;;;;;;5028957;28;20569;-79
2021/12/26 06:54:24;;;;;;;5.80;5.40;;;2.30;99.90;;;;;;5029653;28;20199;-76
2021/12/26 06:56:51;;;;;;;5.75;5.25;;;2.30;99.90;;;;;;5029711;28;20359;-76
2021/12/26 06:59:18;;;;;;;5.45;5.05;;;2.30;99.90;;;;;;5032128;28;20628;-77
2021/12/26 07:01:45;;;;;;;5.78;5.43;;;2.30;99.90;;;;;;5030533;28;20665;-78
2021/12/26 07:04:12;;;;;;;5.28;4.88;;;2.30;99.90;;;;;;5037593;28;20200;-77
2021/12/26 07:06:40;;;;;;;5.32;4.97;;;2.30;99.90;;;;;;5031120;28;20192;-76
2021/12/26 07:09:08;;;;;;;6.25;5.85;;;2.40;99.90;;;;;;5028532;28;20207;-76
2021/12/26 07:11:35;;;;;;;5.97;5.57;;;2.40;99.90;;;;;;5027751;28;20195;-79
2021/12/26 07:14:02;;;;;;;5.63;5.22;;;2.40;99.90;;;;;;5034165;28;20238;-77
2021/12/26 07:16:29;;;;;;;5.60;5.07;;;2.40;99.90;;;;;;5028459;28;20712;-80
2021/12/26 07:18:56;;;;;;;5.30;4.90;;;2.40;99.90;;;;;;5026998;28;20227;-77
2021/12/26 07:21:23;;;;;;;5.80;5.30;;;2.50;99.90;;;;;;5029202;28;20203;-81
2021/12/26 07:23:50;;;;;;;5.40;5.00;;;2.50;99.90;;;;;;5031710;28;20702;-77
2021/12/26 07:26:19;;;;;;;5.20;4.85;;;2.50;99.90;;;;;;5031383;28;20219;-80
2021/12/26 07:28:46;;;;;;;5.85;5.35;;;2.50;99.90;;;;;;5029975;28;20203;-78
2021/12/26 07:31:13;;;;;;;6.00;5.45;;;2.60;99.90;;;;;;5033843;28;20577;-79
2021/12/26 07:33:40;;;;;;;6.43;5.95;;;2.60;99.90;;;;;;5031366;28;20192;-75
2021/12/26 07:36:08;;;;;;;6.70;6.03;;;2.70;99.90;;;;;;5032522;28;20646;-76
2021/12/26 07:38:35;;;;;;;6.30;5.80;;;2.70;99.90;;;;;;5029357;28;20752;-77
2021/12/26 07:41:02;;;;;;;7.30;6.70;;;2.80;99.90;;;;;;5029579;28;20562;-78
2021/12/26 07:43:30;;;;;;;7.00;6.40;;;2.90;99.90;;;;;;5022571;28;20253;-79
2021/12/26 07:45:57;;;;;;;6.43;5.82;;;2.90;99.90;;;;;;5029369;28;20309;-77
2021/12/26 07:48:24;;;;;;;6.60;6.00;;;3.00;99.90;;;;;;5029630;28;20199;-78
2021/12/26 07:50:51;;;;;;;7.05;6.53;;;3.00;99.90;;;;;;5029353;28;20269;-81
2021/12/26 07:53:18;;;;;;;6.30;5.80;;;3.00;99.90;;;;;;5026244;28;20545;-77
2021/12/26 07:55:45;;;;;;;6.53;6.03;;;2.90;99.90;;;;;;5032207;28;20235;-76
2021/12/26 07:58:13;;;;;;;6.18;5.68;;;2.90;99.90;;;;;;5031681;28;20231;-80
2021/12/26 08:00:42;;;;;;;6.28;5.78;;;2.90;99.90;;;;;;5029288;28;20239;-76
2021/12/26 08:03:09;;;;;;;7.20;6.60;;;3.00;99.90;;;;;;5030870;28;20203;-79
2021/12/26 08:05:36;;;;;;;6.60;6.10;;;3.00;99.90;;;;;;5023215;28;20928;-78
2021/12/26 08:08:03;;;;;;;7.07;6.47;;;3.10;99.90;;;;;;5025544;28;20200;-77
2021/12/26 08:10:31;;;;;;;6.88;6.35;;;3.20;99.90;;;;;;5029937;28;20192;-75
2021/12/26 08:12:58;;;;;;;6.20;5.60;;;3.30;99.90;;;;;;5026317;28;20532;-78
2021/12/26 08:15:25;;;;;;;7.53;6.93;;;3.40;99.90;;;;;;5023725;28;20750;-75
2021/12/26 08:17:53;;;;;;;7.65;7.05;;;3.40;99.90;;;;;;5019605;28;20227;-77
2021/12/26 08:20:20;;;;;;;7.43;6.82;;;3.50;99.90;;;;;;5029702;28;20239;-76
2021/12/26 08:22:47;;;;;;;7.15;6.65;;;3.60;99.90;;;;;;5031018;28;20281;-75
2021/12/26 08:25:14;;;;;;;6.95;6.40;;;3.70;99.90;;;;;;5023973;28;20215;-75
2021/12/26 08:27:42;;;;;;;7.40;6.70;;;3.80;99.90;;;;;;5027213;28;20202;-78
2021/12/26 08:30:10;;;;;;;7.45;6.85;;;4.00;99.90;;;;;;5030013;28;20215;-77
2021/12/26 08:32:39;;;;;;;6.93;6.43;;;4.10;99.90;;;;;;5028198;28;20222;-79
2021/12/26 08:35:09;;;;;;;7.32;6.82;;;4.20;99.90;;;;;;5028439;28;20587;-75
2021/12/26 08:37:38;;;;;;;7.35;6.80;;;4.20;99.90;;;;;;5031242;28;20212;-79
2021/12/26 08:40:06;;;;;;;6.90;6.40;;;4.30;99.90;;;;;;5029339;28;20204;-80
2021/12/26 08:42:33;;;;;;;7.50;6.80;;;4.50;99.90;;;;;;5034457;28;20200;-77
2021/12/26 08:45:01;;;;;;;7.43;6.82;;;4.70;99.90;;;;;;5028537;28;20274;-75
2021/12/26 08:47:28;;;;;;;7.72;6.93;;;4.80;99.90;;;;;;5029079;28;20187;-76
2021/12/26 08:49:55;;;;;;;8.30;7.60;;;5.00;99.90;;;;;;5030117;28;20241;-76
2021/12/26 08:52:24;;;;;;;8.27;7.53;;;5.20;99.90;;;;;;5032661;28;20207;-82
2021/12/26 08:54:51;;;;;;;9.18;8.38;;;5.30;99.90;;;;;;5029537;28;20238;-76
2021/12/26 08:57:18;;;;;;;10.80;9.80;;;5.40;99.90;;;;;;5030627;28;20849;-76
2021/12/26 08:59:45;;;;;;;10.60;9.57;;;5.60;99.90;;;;;;5028604;28;20231;-77
2021/12/26 09:02:12;;;;;;;11.70;10.60;;;5.60;99.90;;;;;;5032757;28;20199;-75
2021/12/26 09:04:40;;;;;;;12.48;11.27;;;5.60;99.90;;;;;;5031222;28;20791;-78
2021/12/26 09:07:10;;;;;;;11.48;10.43;;;5.70;99.90;;;;;;5033434;28;20297;-76
2021/12/26 09:09:38;;;;;;;11.73;10.65;;;5.60;99.90;;;;;;5028896;28;20203;-75
2021/12/26 09:12:07;;;;;;;11.93;10.75;;;5.40;99.90;;;;;;5028007;28;20196;-77
2021/12/26 09:14:34;;;;;;;10.75;9.75;;;5.40;99.90;;;;;;5028849;28;20223;-75
2021/12/26 09:17:01;;;;;;;10.32;9.30;;;5.50;99.90;;;;;;5030930;28;20207;-77
2021/12/26 09:19:29;;;;;;;10.25;9.20;;;5.90;99.90;;;;;;5030010;28;20207;-77
2021/12/26 09:21:57;;;;;;;10.93;9.82;;;6.20;99.90;;;;;;5029262;28;20200;-81
2021/12/26 09:24:24;;;;;;;11.10;10.10;;;6.30;99.90;;;;;;5028388;28;20609;-76
2021/12/26 09:26:53;;;;;;;10.90;9.80;;;6.50;99.90;;;;;;5028211;28;20293;-76
2021/12/26 09:29:20;;;;;;;10.23;9.23;;;6.70;99.90;;;;;;5029998;28;20203;-77
2021/12/26 09:31:47;;;;;;;10.32;9.25;;;7.00;99.90;;;;;;5027198;28;20195;-76
2021/12/26 09:34:15;;;;;;;9.38;8.48;;;7.40;99.90;;;;;;5031785;28;20442;-76
2021/12/26 09:36:42;;;;;;;8.65;7.95;;;7.60;99.90;;;;;;5029105;28;20209;-76
2021/12/26 09:39:09;;;;;;;8.93;8.13;;;7.50;99.90;;;;;;5029948;28;20227;-75
2021/12/26 09:41:37;;;;;;;9.23;8.43;;;7.60;99.90;;;;;;5029445;28;20211;-76
2021/12/26 09:44:06;;;;;;;8.35;7.65;;;7.80;99.90;;;;;;5031088;28;20234;-78
2021/12/26 09:46:34;;;;;;;8.20;7.40;;;7.90;99.90;;;;;;5031895;28;20212;-76
2021/12/26 09:49:01;;;;;;;8.30;7.43;;;8.00;99.90;;;;;;5030562;28;20644;-77
2021/12/26 09:51:28;;;;;;;8.10;7.40;;;8.20;99.90;;;;;;5028083;28;20224;-78
2021/12/26 09:53:56;;;;;;;7.75;7.05;;;8.70;99.90;;;;;;5031058;28;20195;-74
2021/12/26 09:56:23;;;;;;;8.43;7.72;;;9.00;99.90;;;;;;5031146;28;20231;-76
2021/12/26 09:58:55;;;;;;;7.28;6.68;;;9.70;99.90;;;;;;5029099;28;20223;-75
2021/12/26 10:01:32;;;;;;;7.38;6.72;;;10.60;99.90;;;;;;5028210;28;20208;-77
2021/12/26 10:04:02;;;;;;;8.52;7.78;;;11.00;99.90;;;;;;5029776;28;20607;-76
2021/12/26 10:06:33;;;;;;;9.20;8.38;;;10.80;99.90;;;;;;5026378;28;20230;-77
2021/12/26 10:09:04;;;;;;;9.30;8.40;;;10.60;99.90;;;;;;5031262;28;20625;-76
2021/12/26 10:11:33;;;;;;;10.77;9.75;;;10.30;99.90;;;;;;5028250;28;20916;-77
2021/12/26 10:14:02;;;;;;;10.65;9.65;;;10.00;99.90;;;;;;5029364;28;20282;-76
2021/12/26 10:16:32;;;;;;;10.45;9.35;;;9.70;99.90;;;;;;5027176;28;20232;-76
2021/12/26 10:18:59;;;;;;;10.10;9.13;;;9.20;99.90;;;;;;5024481;28;20637;-76
2021/12/26 10:21:34;;;;;;;8.48;7.68;;;8.90;99.90;;;;;;5029082;28;20203;-76
2021/12/26 10:24:06;;;;;;;8.68;7.95;;;8.80;99.90;;;;;;5025999;28;20207;-77
2021/12/26 10:26:36;;;;;;;9.00;8.20;;;8.80;99.90;;;;;;5030086;28;20196;-76
2021/12/26 10:29:18;;;;;;;9.80;8.90;;;8.80;99.90;;;;;;5031567;28;20196;-76
2021/12/26 10:31:51;;;;;;;9.13;8.27;;;8.80;99.90;;;;;;5021150;28;20698;-76
2021/12/26 10:34:22;;;;;;;9.45;8.45;;;8.70;99.90;;;;;;5032032;28;20199;-76
2021/12/26 10:36:51;;;;;;;10.80;8.77;;;8.50;99.90;;;;;;5026585;28;20297;-77
2021/12/26 10:39:20;;;;;;;10.27;9.27;;;8.30;99.90;;;;;;5036028;28;20635;-77
2021/12/26 10:41:50;;;;;;;11.38;8.50;;;8.10;99.90;;;;;;5031849;28;20196;-76
2021/12/26 10:44:22;;;;;;;9.68;8.73;;;8.00;99.90;;;;;;5027697;28;20206;-76
2021/12/26 10:46:53;;;;;;;11.00;9.85;;;7.80;99.90;;;;;;5028427;28;20200;-76
2021/12/26 10:49:31;;;;;;;9.93;8.93;;;7.70;99.90;;;;;;5028243;28;20192;-76
2021/12/26 10:52:00;;;;;;;9.75;8.75;;;7.70;99.90;;;;;;5027790;28;20194;-78
2021/12/26 10:54:31;;;;;;;9.30;8.40;;;7.60;99.90;;;;;;5031056;28;20196;-75
2021/12/26 10:57:12;;;;;;;10.02;9.02;;;7.60;99.90;;;;;;5034078;28;20700;-76
2021/12/26 10:59:44;;;;;;;9.30;8.40;;;7.60;99.90;;;;;;5029001;28;20211;-77
2021/12/26 11:02:23;;;;;;;8.60;7.72;;;7.50;99.90;;;;;;5031136;28;20196;-76
2021/12/26 11:05:02;;;;;;;8.20;7.50;;;7.40;99.90;;;;;;5032435;28;20302;-76
2021/12/26 11:07:30;;;;;;;8.88;8.07;;;7.40;99.90;;;;;;5030168;28;20195;-76
2021/12/26 11:10:11;;;;;;;9.60;8.70;;;7.30;99.90;;;;;;5030480;28;20196;-76
2021/12/26 11:12:45;;;;;;;9.30;8.40;;;7.20;99.90;;;;;;5030284;28;20199;-78
2021/12/26 11:15:13;;;;;;;8.95;8.15;;;7.20;99.90;;;;;;5029497;28;20742;-76
2021/12/26 11:17:45;;;;;;;8.95;8.15;;;7.10;99.90;;;;;;5033512;28;20571;-77
2021/12/26 11:20:30;;;;;;;8.75;7.95;;;7.10;99.90;;;;;;5026313;28;20196;-76
2021/12/26 11:22:59;;;;;;;9.30;8.40;;;7.00;99.90;;;;;;5032264;28;20204;-75
2021/12/26 11:25:27;;;;;;;9.25;8.35;;;7.00;99.90;;;;;;5031247;28;20789;-74
2021/12/26 11:27:54;;;;;;;10.20;9.27;;;7.00;99.90;;;;;;5032225;28;20191;-74
2021/12/26 11:30:24;;;;;;;10.13;9.10;;;6.90;99.90;;;;;;5028570;28;20291;-74
2021/12/26 11:32:53;;;;;;;10.48;9.40;;;7.00;99.90;;;;;;5034846;28;20286;-76
2021/12/26 11:35:21;;;;;;;11.45;10.35;;;6.90;99.90;;;;;;5038925;28;20215;-74
2021/12/26 11:37:50;;;;;;;11.57;10.48;;;6.90;99.90;;;;;;5030206;28;20191;-74
2021/12/26 11:40:18;;;;;;;11.32;10.13;;;6.90;99.90;;;;;;5028829;28;20200;-75
2021/12/26 11:43:22;;;;;;;10.98;9.88;;;6.90;99.90;;;;;;5030056;28;20203;-75
2021/12/26 11:46:00;;;;;;;11.00;9.90;;;7.00;99.90;;;;;;5027195;28;20220;-76
2021/12/26 11:49:12;;;;;;;10.35;9.35;;;7.00;99.90;;;;;;5024190;28;20188;-76
2021/12/26 11:51:57;;;;;;;9.45;8.50;;;7.00;99.90;;;;;;5021955;28;20205;-75
2021/12/26 11:54:55;;;;;;;10.98;9.93;;;7.00;99.90;;;;;;5028107;28;20199;-76
2021/12/26 11:58:12;;;;;;;9.77;8.77;;;7.10;99.90;;;;;;5028866;28;20231;-76
2021/12/26 12:00:41;;;;;;;10.63;9.73;;;7.10;99.90;;;;;;4987518;28;20200;-75
2021/12/26 12:03:19;;;;;;;16.08;9.70;;;7.30;99.90;;;;;;5028404;28;20199;-75
2021/12/26 12:05:48;;;;;;;9.60;8.70;;;7.30;99.90;;;;;;5028766;28;20215;-75
2021/12/26 12:08:17;;;;;;;9.88;8.65;;;7.30;99.90;;;;;;5034276;28;20253;-75
2021/12/26 12:10:48;;;;;;;8.85;8.07;;;7.30;99.90;;;;;;5028615;28;20629;-76
2021/12/26 12:13:42;;;;;;;9.38;8.48;;;7.30;99.90;;;;;;5033890;28;20204;-74
2021/12/26 12:16:11;;;;;;;8.82;8.00;;;7.20;99.90;;;;;;5029181;28;20280;-75
2021/12/26 12:18:40;;;;;;;9.02;8.23;;;7.20;99.90;;;;;;5026421;28;20618;-76
2021/12/26 12:21:14;;;;;;;9.45;8.43;;;7.20;99.90;;;;;;5029591;28;20691;-75
2021/12/26 12:24:01;;;;;;;10.32;9.20;;;7.20;99.90;;;;;;5028371;28;20191;-76
2021/12/26 12:26:43;;;;;;;10.18;9.15;;;7.20;99.90;;;;;;5028405;28;20227;-76
2021/12/26 12:29:13;;;;;;;10.50;9.48;;;7.20;99.90;;;;;;5032880;28;20593;-75
2021/12/26 12:31:41;;;;;;;9.75;8.85;;;7.10;99.90;;;;;;5027465;28;20246;-76
2021/12/26 12:34:11;;;;;;;9.23;8.43;;;7.10;99.90;;;;;;5030811;28;20644;-76
2021/12/26 12:36:41;;;;;;;9.40;8.57;;;7.10;99.90;;;;;;5026038;28;20569;-76
2021/12/26 12:39:16;;;;;;;10.45;9.45;;;7.00;99.90;;;;;;5031876;28;20635;-75
2021/12/26 12:41:46;;;;;;;9.20;8.32;;;6.90;99.90;;;;;;5026304;28;20223;-72
2021/12/26 12:44:29;;;;;;;9.85;8.95;;;6.70;99.90;;;;;;5031311;28;20206;-75
2021/12/26 12:47:01;;;;;;;9.93;9.02;;;6.60;99.90;;;;;;5028771;28;20676;-77
2021/12/26 12:49:49;;;;;;;9.57;8.73;;;6.60;99.90;;;;;;5029821;28;20195;-77
2021/12/26 12:52:47;;;;;;;9.85;8.95;;;6.70;99.90;;;;;;5023930;28;20229;-76
2021/12/26 12:55:19;;;;;;;8.70;7.90;;;6.60;99.90;;;;;;5034159;28;20250;-76
2021/12/26 12:57:48;;;;;;;8.95;8.05;;;6.60;99.90;;;;;;5030184;28;20207;-75
2021/12/26 13:00:43;;;;;;;9.70;8.77;;;6.50;99.90;;;;;;5029055;28;20230;-75
2021/12/26 13:03:17;;;;;;;8.98;8.07;;;6.40;99.90;;;;;;5026884;28;20294;-76
2021/12/26 13:05:46;;;;;;;9.40;8.60;;;6.40;99.90;;;;;;5029016;28;20741;-74
2021/12/26 13:08:17;;;;;;;9.52;8.63;;;6.40;99.90;;;;;;5031259;28;20194;-75
2021/12/26 13:10:49;;;;;;;9.07;8.18;;;6.50;99.90;;;;;;5029097;28;20195;-75